Time;durP1;ratioP1;P1;durP2;ratioP2;P2;SDS_P1;SDS_P2;PMS_P1;PMS_P2;Temp;Humidity;BMP_temperature;BMP_pressure;BME280_temperature;BME280_humidity;BME280_pressure;Samples;Min_cycle;Max_cycle;Signal;HPM_P1;HPM_P2
2021/12/13 00:00:42;;;;;;;21.33;18.93;;;10.90;99.90;;;;;;6216005;23;20226;-74
2021/12/13 00:03:17;;;;;;;18.83;17.03;;;10.90;99.90;;;;;;6216061;23;20168;-75
2021/12/13 00:05:49;;;;;;;20.47;18.27;;;11.00;99.90;;;;;;6215548;23;20179;-76
2021/12/13 00:08:25;;;;;;;22.77;19.30;;;11.00;99.90;;;;;;6215139;23;20168;-76
2021/12/13 00:10:56;;;;;;;19.83;17.67;;;11.00;99.90;;;;;;6215671;23;20190;-74
2021/12/13 00:13:28;;;;;;;23.17;18.27;;;11.00;99.90;;;;;;6215238;23;20163;-74
2021/12/13 00:16:01;;;;;;;21.57;18.77;;;11.00;99.90;;;;;;6214921;23;20171;-77
2021/12/13 00:18:31;;;;;;;22.33;19.97;;;11.00;99.90;;;;;;6215459;23;20495;-76
2021/12/13 00:21:07;;;;;;;22.97;20.13;;;11.10;99.90;;;;;;6215420;23;20198;-75
2021/12/13 00:23:44;;;;;;;25.03;22.20;;;11.10;99.90;;;;;;6215981;23;20172;-73
2021/12/13 00:26:20;;;;;;;26.27;21.83;;;10.90;99.90;;;;;;6215346;23;20172;-73
2021/12/13 00:28:47;;;;;;;24.80;22.17;;;10.90;99.90;;;;;;6215894;23;20171;-73
2021/12/13 00:31:32;;;;;;;26.20;23.10;;;11.00;99.90;;;;;;6215065;23;20486;-76
2021/12/13 00:34:09;;;;;;;29.17;23.57;;;11.10;99.90;;;;;;6215255;23;20165;-76
2021/12/13 00:36:41;;;;;;;27.63;23.63;;;11.10;99.90;;;;;;6214989;23;20198;-74
2021/12/13 00:39:15;;;;;;;30.73;23.47;;;10.90;99.90;;;;;;6215593;23;20181;-77
2021/12/13 00:41:44;;;;;;;30.07;24.70;;;10.90;99.90;;;;;;6215066;23;20186;-73
2021/12/13 00:44:16;;;;;;;30.00;25.27;;;10.90;99.90;;;;;;6215253;23;20180;-75
2021/12/13 00:46:46;;;;;;;33.97;26.43;;;10.90;99.90;;;;;;6215442;23;20176;-76
2021/12/13 00:49:16;;;;;;;34.43;27.40;;;10.80;99.90;;;;;;6215585;23;20207;-72
2021/12/13 00:51:48;;;;;;;33.13;26.87;;;10.80;99.90;;;;;;6215047;23;20207;-76
2021/12/13 00:54:19;;;;;;;33.87;27.67;;;10.90;99.90;;;;;;6215172;23;20183;-75
2021/12/13 00:57:03;;;;;;;37.73;27.90;;;11.00;99.90;;;;;;6215069;23;20163;-77
2021/12/13 00:59:33;;;;;;;34.40;27.97;;;10.90;99.90;;;;;;6215128;23;20176;-79
2021/12/13 01:02:05;;;;;;;34.27;27.40;;;10.80;99.90;;;;;;6214860;23;20173;-77
2021/12/13 01:04:56;;;;;;;35.33;28.40;;;10.80;99.90;;;;;;6215292;23;20170;-74
2021/12/13 01:07:58;;;;;;;35.33;28.10;;;10.80;99.90;;;;;;6215213;23;20163;-74
2021/12/13 01:11:07;;;;;;;33.97;27.13;;;10.80;99.90;;;;;;6214985;23;20202;-76
2021/12/13 01:13:41;;;;;;;35.73;27.87;;;10.80;99.90;;;;;;6215091;23;20194;-75
2021/12/13 01:16:18;;;;;;;36.53;28.40;;;10.90;99.90;;;;;;6214967;23;20617;-74
2021/12/13 01:19:02;;;;;;;36.10;28.60;;;10.80;99.90;;;;;;6214841;23;20556;-73
2021/12/13 01:21:42;;;;;;;33.47;27.60;;;10.80;99.90;;;;;;6215078;23;20224;-73
2021/12/13 01:24:16;;;;;;;34.37;26.70;;;10.90;99.90;;;;;;6215335;23;20167;-77
2021/12/13 01:26:48;;;;;;;38.00;27.73;;;10.80;99.90;;;;;;6215103;23;20164;-76
2021/12/13 01:29:19;;;;;;;33.60;27.10;;;10.80;99.90;;;;;;6214768;23;20490;-75
2021/12/13 01:31:49;;;;;;;38.60;27.43;;;10.80;99.90;;;;;;6215377;23;20166;-75
2021/12/13 01:34:18;;;;;;;32.90;26.80;;;10.80;99.90;;;;;;6215201;23;20171;-75
2021/12/13 01:37:00;;;;;;;35.27;28.40;;;10.80;99.90;;;;;;6215323;23;20188;-75
2021/12/13 01:39:29;;;;;;;34.73;28.07;;;10.80;99.90;;;;;;6214908;23;20162;-77
2021/12/13 01:42:00;;;;;;;36.37;27.60;;;10.90;99.90;;;;;;6215266;23;20163;-74
2021/12/13 01:44:29;;;;;;;35.13;27.00;;;10.90;99.90;;;;;;6215382;23;20163;-74
2021/12/13 01:47:01;;;;;;;34.93;27.87;;;10.80;99.90;;;;;;6214984;23;20595;-76
2021/12/13 01:49:33;;;;;;;35.10;26.57;;;10.80;99.90;;;;;;6215090;23;20166;-77
2021/12/13 01:52:02;;;;;;;39.13;28.23;;;10.70;99.90;;;;;;6214563;23;20174;-74
2021/12/13 01:54:29;;;;;;;37.07;27.33;;;10.60;99.90;;;;;;6214524;23;20171;-75
2021/12/13 01:57:11;;;;;;;34.63;26.70;;;10.70;99.90;;;;;;6214940;23;20186;-77
2021/12/13 01:59:51;;;;;;;39.70;27.37;;;10.70;99.90;;;;;;6214674;23;20635;-75
2021/12/13 02:02:28;;;;;;;34.43;26.20;;;10.80;99.90;;;;;;6214850;23;20213;-78
2021/12/13 02:05:00;;;;;;;34.80;25.87;;;10.60;99.90;;;;;;6215013;23;20197;-75
2021/12/13 02:07:36;;;;;;;38.00;27.47;;;10.60;99.90;;;;;;6215192;23;20163;-75
2021/12/13 02:10:09;;;;;;;36.20;25.50;;;10.70;99.90;;;;;;6214557;23;20213;-78
2021/12/13 02:12:41;;;;;;;32.83;25.33;;;10.70;99.90;;;;;;6214843;23;20167;-77
2021/12/13 02:17:53;;;;;;;32.83;25.93;;;10.60;99.90;;;;;;6216096;23;20170;-76
2021/12/13 02:20:26;;;;;;;32.90;25.27;;;10.70;99.90;;;;;;6216649;23;20265;-76
2021/12/13 02:22:55;;;;;;;37.03;25.17;;;10.70;99.90;;;;;;6216801;23;20163;-75
2021/12/13 02:25:27;;;;;;;31.10;24.20;;;10.70;99.90;;;;;;6216888;23;20163;-75
2021/12/13 02:27:59;;;;;;;32.03;24.23;;;10.70;99.90;;;;;;6217036;23;20170;-75
2021/12/13 02:30:32;;;;;;;36.07;24.93;;;10.60;99.90;;;;;;6216827;23;20191;-78
2021/12/13 02:33:00;;;;;;;33.47;25.07;;;10.60;99.90;;;;;;6216835;23;20273;-76
2021/12/13 02:35:32;;;;;;;30.87;23.37;;;10.70;99.90;;;;;;6216535;23;20258;-76
2021/12/13 02:38:03;;;;;;;35.00;24.13;;;10.60;99.90;;;;;;6216571;23;20174;-75
2021/12/13 02:40:30;;;;;;;29.43;22.37;;;10.60;99.90;;;;;;6216887;23;20170;-76
2021/12/13 02:42:58;;;;;;;31.07;22.97;;;10.60;99.90;;;;;;6216225;23;20167;-74
2021/12/13 02:45:28;;;;;;;30.17;23.03;;;10.60;99.90;;;;;;6216744;23;20529;-76
2021/12/13 02:48:01;;;;;;;33.07;23.90;;;10.60;99.90;;;;;;6216608;23;20249;-73
2021/12/13 02:50:39;;;;;;;31.73;22.90;;;10.70;99.90;;;;;;6216573;23;20659;-75
2021/12/13 02:53:09;;;;;;;32.27;23.33;;;10.70;99.90;;;;;;6216356;23;20167;-76
2021/12/13 02:55:36;;;;;;;32.43;23.00;;;10.60;99.90;;;;;;6216439;23;20619;-74
2021/12/13 02:58:07;;;;;;;30.17;22.97;;;10.50;99.90;;;;;;6216450;23;20163;-74
2021/12/13 03:00:43;;;;;;;30.67;22.00;;;10.40;99.90;;;;;;6216716;23;20163;-77
2021/12/13 03:03:13;;;;;;;28.37;21.50;;;10.40;99.90;;;;;;6216316;23;20167;-74
2021/12/13 03:05:43;;;;;;;30.27;20.90;;;10.40;99.90;;;;;;6216223;23;20507;-74
2021/12/13 03:08:15;;;;;;;30.93;21.87;;;10.50;99.90;;;;;;6216323;23;20176;-73
2021/12/13 03:10:48;;;;;;;29.23;21.33;;;10.60;99.90;;;;;;6216397;23;20273;-76
2021/12/13 03:13:16;;;;;;;31.27;20.90;;;10.60;99.90;;;;;;6216215;23;20166;-76
2021/12/13 03:15:48;;;;;;;26.07;19.97;;;10.50;99.90;;;;;;6216448;23;20163;-72
2021/12/13 03:18:29;;;;;;;28.67;20.63;;;10.40;99.90;;;;;;6215685;23;20163;-80
2021/12/13 03:21:20;;;;;;;24.33;20.13;;;10.40;99.90;;;;;;6215892;23;20187;-74
2021/12/13 03:24:05;;;;;;;28.97;20.60;;;10.50;99.90;;;;;;6215731;23;20182;-73
2021/12/13 03:26:58;;;;;;;29.97;21.17;;;10.60;99.90;;;;;;6216238;23;20170;-74
2021/12/13 03:29:40;;;;;;;27.60;20.37;;;10.70;99.90;;;;;;6214474;23;20174;-77
2021/12/13 03:32:11;;;;;;;33.30;25.90;;;10.60;99.90;;;;;;6215525;23;20396;-76
2021/12/13 03:34:39;;;;;;;27.63;21.43;;;10.60;99.90;;;;;;6216294;23;20163;-75
2021/12/13 03:37:11;;;;;;;27.67;20.90;;;10.70;99.90;;;;;;6214344;23;20190;-73
2021/12/13 03:39:42;;;;;;;28.20;20.43;;;10.80;99.90;;;;;;6216131;23;20163;-76
2021/12/13 03:42:13;;;;;;;29.13;21.70;;;10.70;99.90;;;;;;6216422;23;20174;-74
2021/12/13 03:44:46;;;;;;;28.73;19.97;;;10.80;99.90;;;;;;6215857;23;20566;-75
2021/12/13 03:47:17;;;;;;;30.00;20.70;;;10.80;99.90;;;;;;6216237;23;20202;-74
2021/12/13 03:49:48;;;;;;;28.73;20.10;;;10.70;99.90;;;;;;6215510;23;20645;-78
2021/12/13 03:52:18;;;;;;;30.27;19.67;;;10.70;99.90;;;;;;6216120;23;20170;-74
2021/12/13 03:54:49;;;;;;;30.97;21.60;;;10.70;99.90;;;;;;6216483;23;20185;-75
2021/12/13 03:57:18;;;;;;;32.37;20.77;;;10.70;99.90;;;;;;6215721;23;20229;-76
2021/12/13 03:59:46;;;;;;;28.93;20.30;;;10.60;99.90;;;;;;6216080;23;20167;-73
2021/12/13 04:02:16;;;;;;;26.67;19.17;;;10.60;99.90;;;;;;6215707;23;20178;-73
2021/12/13 04:04:48;;;;;;;31.03;21.60;;;10.50;99.90;;;;;;6215307;23;20203;-74
2021/12/13 04:07:21;;;;;;;28.07;19.77;;;10.50;99.90;;;;;;6215845;23;20163;-75
2021/12/13 04:09:55;;;;;;;32.47;24.88;;;10.40;99.90;;;;;;6215125;23;20399;-75
2021/12/13 04:12:27;;;;;;;29.70;20.53;;;10.50;99.90;;;;;;6215790;23;20167;-74
2021/12/13 04:15:00;;;;;;;28.63;20.87;;;10.50;99.90;;;;;;6215526;23;20199;-73
2021/12/13 04:17:41;;;;;;;31.63;21.10;;;10.50;99.90;;;;;;6215867;23;20170;-77
2021/12/13 04:20:14;;;;;;;30.77;21.70;;;10.60;99.90;;;;;;6213883;23;20179;-75
2021/12/13 04:22:48;;;;;;;30.40;21.33;;;10.60;99.90;;;;;;6214178;23;20185;-73
2021/12/13 04:25:19;;;;;;;32.27;21.60;;;10.60;99.90;;;;;;6211744;23;20167;-73
2021/12/13 04:27:49;;;;;;;28.07;21.13;;;10.60;99.90;;;;;;6214710;23;20175;-73
2021/12/13 04:30:23;;;;;;;29.60;20.03;;;10.70;99.90;;;;;;6215812;23;20171;-76
2021/12/13 04:32:53;;;;;;;30.73;20.90;;;10.70;99.90;;;;;;6215386;23;20174;-72
2021/12/13 04:35:20;;;;;;;29.87;21.20;;;10.80;99.90;;;;;;6215311;23;20502;-72
2021/12/13 04:37:50;;;;;;;27.77;20.47;;;10.70;99.90;;;;;;6215468;23;20187;-75
2021/12/13 04:40:22;;;;;;;29.00;20.57;;;10.80;99.90;;;;;;6215411;23;20163;-73
2021/12/13 04:42:54;;;;;;;32.87;21.33;;;10.80;99.90;;;;;;6215224;23;20629;-73
2021/12/13 04:45:24;;;;;;;28.67;19.57;;;10.80;99.90;;;;;;6215733;23;20163;-73
2021/12/13 04:48:02;;;;;;;32.10;21.50;;;10.70;99.90;;;;;;6214939;23;20229;-73
2021/12/13 04:50:34;;;;;;;32.13;21.37;;;10.70;99.90;;;;;;6215061;23;20205;-75
2021/12/13 04:53:02;;;;;;;31.70;20.80;;;10.70;99.90;;;;;;6214825;23;20618;-74
2021/12/13 04:55:35;;;;;;;32.93;21.50;;;10.60;99.90;;;;;;6215423;23;20163;-74
2021/12/13 04:58:07;;;;;;;29.87;21.10;;;10.60;99.90;;;;;;6214991;23;20170;-74
2021/12/13 05:00:37;;;;;;;31.57;20.80;;;10.60;99.90;;;;;;6215206;23;20504;-73
2021/12/13 05:03:05;;;;;;;26.60;19.60;;;10.60;99.90;;;;;;6214945;23;20170;-75
2021/12/13 05:05:35;;;;;;;29.43;21.23;;;10.60;99.90;;;;;;6215018;23;20178;-73
2021/12/13 05:08:02;;;;;;;29.27;20.30;;;10.60;99.90;;;;;;6215239;23;20640;-75
2021/12/13 05:10:33;;;;;;;30.83;20.63;;;10.60;99.90;;;;;;6214993;23;20246;-76
2021/12/13 05:13:07;;;;;;;29.60;20.90;;;10.70;99.90;;;;;;6215443;23;20167;-74
2021/12/13 05:15:37;;;;;;;28.53;20.37;;;10.70;99.90;;;;;;6215212;23;20166;-78
2021/12/13 05:18:10;;;;;;;27.07;20.07;;;10.70;99.90;;;;;;6214425;23;20167;-76
2021/12/13 05:20:40;;;;;;;25.77;19.33;;;10.70;99.90;;;;;;6215236;23;20187;-76
2021/12/13 05:23:09;;;;;;;29.17;19.57;;;10.60;99.90;;;;;;6215316;23;20170;-74
2021/12/13 05:25:41;;;;;;;26.67;18.47;;;10.60;99.90;;;;;;6214080;23;20178;-75
2021/12/13 05:28:11;;;;;;;24.40;17.87;;;10.60;99.90;;;;;;6215123;23;20170;-76
2021/12/13 05:30:45;;;;;;;23.03;17.97;;;10.60;99.90;;;;;;6215206;23;20274;-74
2021/12/13 05:33:15;;;;;;;27.17;18.03;;;10.70;99.90;;;;;;6215265;23;20262;-75
2021/12/13 05:35:44;;;;;;;23.03;17.83;;;10.50;99.90;;;;;;6214751;23;20186;-75
2021/12/13 05:38:27;;;;;;;26.40;18.93;;;10.60;99.90;;;;;;6214625;23;20631;-76
2021/12/13 05:41:01;;;;;;;22.43;16.67;;;10.40;99.90;;;;;;6215738;23;20167;-83
2021/12/13 05:43:31;;;;;;;22.73;17.13;;;10.50;99.90;;;;;;6215303;23;20163;-78
2021/12/13 05:46:03;;;;;;;24.23;17.70;;;10.50;99.90;;;;;;6215219;23;20186;-79
2021/12/13 05:48:44;;;;;;;24.53;18.37;;;10.60;99.90;;;;;;6215012;23;20599;-77
2021/12/13 05:51:27;;;;;;;23.07;16.27;;;10.80;99.90;;;;;;6216457;23;20195;-84
2021/12/13 05:53:58;;;;;;;22.20;16.80;;;10.70;99.90;;;;;;6217947;23;20173;-84
2021/12/13 05:56:33;;;;;;;24.47;17.23;;;10.80;99.90;;;;;;6217895;23;20171;-83
2021/12/13 05:59:12;;;;;;;21.40;16.23;;;10.70;99.90;;;;;;6217928;23;20169;-83
2021/12/13 06:01:44;;;;;;;23.08;20.40;;;10.80;99.90;;;;;;6215635;23;20395;-79
2021/12/13 06:04:22;;;;;;;23.00;16.90;;;10.80;99.90;;;;;;6218114;23;20188;-82
2021/12/13 06:06:52;;;;;;;20.43;16.47;;;10.70;99.90;;;;;;6217190;23;20174;-84
2021/12/13 06:09:54;;;;;;;20.67;16.27;;;10.70;99.90;;;;;;6216732;23;20185;-79
2021/12/13 06:12:29;;;;;;;20.03;15.43;;;10.70;99.90;;;;;;6217708;23;20213;-83
2021/12/13 06:15:04;;;;;;;20.77;16.33;;;10.70;99.90;;;;;;6216702;23;20688;-86
2021/12/13 06:17:35;;;;;;;22.40;16.97;;;10.60;99.90;;;;;;6217824;23;20167;-83
2021/12/13 06:20:06;;;;;;;19.63;16.03;;;10.80;99.90;;;;;;6217647;23;20163;-80
2021/12/13 06:22:35;;;;;;;18.83;15.33;;;10.70;99.90;;;;;;6217338;23;20194;-84
2021/12/13 06:25:08;;;;;;;21.93;15.37;;;10.70;99.90;;;;;;6217323;23;20174;-82
2021/12/13 06:27:44;;;;;;;20.80;16.83;;;10.70;99.90;;;;;;6217049;23;20179;-81
2021/12/13 06:30:20;;;;;;;22.07;15.93;;;10.60;99.90;;;;;;6216739;23;20174;-81
2021/12/13 06:32:53;;;;;;;21.73;15.30;;;10.60;99.90;;;;;;6216863;23;20190;-79
2021/12/13 06:35:40;;;;;;;19.50;15.00;;;10.60;99.90;;;;;;6216797;23;20179;-79
2021/12/13 06:38:35;;;;;;;18.83;15.07;;;10.70;99.90;;;;;;6217749;23;20177;-82
2021/12/13 06:41:09;;;;;;;20.90;15.10;;;10.60;99.90;;;;;;6217588;23;20169;-83
2021/12/13 06:43:42;;;;;;;19.83;14.10;;;10.60;99.90;;;;;;6217403;23;20163;-80
2021/12/13 06:46:13;;;;;;;19.30;15.00;;;10.60;99.90;;;;;;6217286;23;20164;-76
2021/12/13 06:48:44;;;;;;;19.60;14.70;;;10.70;99.90;;;;;;6217216;23;20171;-86
2021/12/13 06:51:14;;;;;;;18.77;14.50;;;10.80;99.90;;;;;;6217037;23;20195;-76
2021/12/13 06:53:58;;;;;;;16.83;13.67;;;10.70;99.90;;;;;;6217126;23;20170;-78
2021/12/13 06:56:28;;;;;;;17.50;13.50;;;10.70;99.90;;;;;;6216913;23;20170;-76
2021/12/13 06:58:59;;;;;;;18.23;13.57;;;10.60;99.90;;;;;;6216674;23;20168;-77
2021/12/13 07:01:26;;;;;;;15.10;13.37;;;10.60;99.90;;;;;;6216816;23;20170;-81
2021/12/13 07:03:57;;;;;;;17.23;13.33;;;10.60;99.90;;;;;;6216713;23;20167;-79
2021/12/13 07:06:24;;;;;;;17.13;12.50;;;10.60;99.90;;;;;;6217537;23;20184;-83
2021/12/13 07:09:14;;;;;;;16.60;13.10;;;10.70;99.90;;;;;;6216937;23;20169;-84
2021/12/13 07:11:47;;;;;;;15.90;13.20;;;10.60;99.90;;;;;;6216939;23;20201;-85
2021/12/13 07:14:18;;;;;;;15.50;12.20;;;10.60;99.90;;;;;;6216112;23;20548;-81
2021/12/13 07:16:51;;;;;;;16.17;12.60;;;10.60;99.90;;;;;;6216182;23;20166;-80
2021/12/13 07:19:22;;;;;;;15.70;12.07;;;10.70;99.90;;;;;;6216725;23;20163;-84
2021/12/13 07:22:01;;;;;;;15.77;12.83;;;10.70;99.90;;;;;;6216672;23;20190;-82
2021/12/13 07:24:32;;;;;;;14.83;12.27;;;10.70;99.90;;;;;;6216850;23;20167;-78
2021/12/13 07:27:04;;;;;;;14.43;12.63;;;10.60;99.90;;;;;;6215509;23;20661;-80
2021/12/13 07:29:40;;;;;;;14.33;12.20;;;10.70;99.90;;;;;;6216153;23;20171;-78
2021/12/13 07:32:12;;;;;;;16.07;13.03;;;10.70;99.90;;;;;;6215985;23;20201;-76
2021/12/13 07:34:51;;;;;;;15.97;13.00;;;10.60;99.90;;;;;;6215224;23;20506;-78
2021/12/13 07:37:33;;;;;;;19.83;12.53;;;10.60;99.90;;;;;;6216295;23;20174;-79
2021/12/13 07:40:19;;;;;;;17.00;13.33;;;10.50;99.90;;;;;;6216447;23;20186;-77
2021/12/13 07:42:55;;;;;;;14.97;12.07;;;10.50;99.90;;;;;;6215739;23;20175;-78
2021/12/13 07:45:26;;;;;;;16.80;12.80;;;10.50;99.90;;;;;;6214856;23;20174;-80
2021/12/13 07:47:54;;;;;;;15.03;12.70;;;10.50;99.90;;;;;;6216240;23;20179;-79
2021/12/13 07:50:22;;;;;;;14.27;12.33;;;10.50;99.90;;;;;;6215777;23;20194;-77
2021/12/13 07:52:56;;;;;;;16.70;13.03;;;10.40;99.90;;;;;;6216351;23;20216;-76
2021/12/13 07:55:29;;;;;;;16.77;13.53;;;10.60;99.90;;;;;;6216377;23;20170;-77
2021/12/13 07:57:58;;;;;;;18.33;13.47;;;10.60;99.90;;;;;;6215619;23;20174;-78
2021/12/13 08:00:33;;;;;;;19.73;12.83;;;10.50;99.90;;;;;;6216223;23;20180;-76
2021/12/13 08:03:06;;;;;;;15.93;13.40;;;10.40;99.90;;;;;;6215683;23;20567;-82
2021/12/13 08:05:38;;;;;;;15.23;12.50;;;10.50;99.90;;;;;;6215623;23;20179;-75
2021/12/13 08:08:07;;;;;;;16.27;13.17;;;10.60;99.90;;;;;;6216230;23;20163;-76
2021/12/13 08:10:38;;;;;;;14.73;12.40;;;10.60;99.90;;;;;;6215669;23;20198;-79
2021/12/13 08:13:08;;;;;;;15.27;13.20;;;10.50;99.90;;;;;;6215526;23;20199;-75
2021/12/13 08:15:39;;;;;;;17.23;14.20;;;10.60;99.90;;;;;;6215448;23;20178;-73
2021/12/13 08:18:10;;;;;;;15.07;12.90;;;10.50;99.90;;;;;;6215839;23;20162;-75
2021/12/13 08:20:44;;;;;;;17.70;13.13;;;10.40;99.90;;;;;;6215730;23;20163;-76
2021/12/13 08:23:18;;;;;;;17.93;13.67;;;10.60;99.90;;;;;;6215757;23;20166;-77
2021/12/13 08:25:47;;;;;;;16.10;13.00;;;10.50;99.90;;;;;;6215085;23;20503;-75
2021/12/13 08:28:18;;;;;;;15.43;12.23;;;10.60;99.90;;;;;;6215503;23;20176;-76
2021/12/13 08:30:49;;;;;;;15.20;12.57;;;10.60;99.90;;;;;;6215476;23;20174;-75
2021/12/13 08:33:19;;;;;;;18.57;13.47;;;10.40;99.90;;;;;;6215032;23;20198;-77
2021/12/13 08:35:51;;;;;;;16.47;13.00;;;10.50;99.90;;;;;;6215314;23;20191;-75
2021/12/13 08:38:31;;;;;;;16.87;13.27;;;10.50;99.90;;;;;;6215495;23;20169;-75
2021/12/13 08:40:59;;;;;;;15.17;11.97;;;10.40;99.90;;;;;;6214706;23;20493;-76
2021/12/13 08:43:40;;;;;;;18.30;12.57;;;10.40;99.90;;;;;;6215506;23;20175;-75
2021/12/13 08:46:11;;;;;;;15.07;12.63;;;10.50;99.90;;;;;;6215091;23;20165;-75
2021/12/13 08:48:48;;;;;;;16.87;11.73;;;10.40;99.90;;;;;;6215460;23;20199;-75
2021/12/13 08:51:22;;;;;;;20.73;12.63;;;10.40;99.90;;;;;;6214467;23;20213;-76
2021/12/13 08:53:59;;;;;;;16.47;12.13;;;10.50;99.90;;;;;;6214488;23;20175;-75
2021/12/13 08:56:28;;;;;;;19.53;12.20;;;10.50;99.90;;;;;;6214720;23;20174;-78
2021/12/13 08:58:59;;;;;;;15.87;12.00;;;10.60;99.90;;;;;;6214803;23;20500;-77
2021/12/13 09:01:28;;;;;;;15.30;11.67;;;10.60;99.90;;;;;;6214917;23;20168;-77
2021/12/13 09:03:56;;;;;;;14.40;11.37;;;10.50;99.90;;;;;;6215188;23;20167;-77
2021/12/13 09:06:35;;;;;;;17.70;12.47;;;10.50;99.90;;;;;;6214965;23;20607;-75
2021/12/13 09:09:10;;;;;;;13.73;11.23;;;10.60;99.90;;;;;;6214737;23;20199;-77
2021/12/13 09:11:41;;;;;;;16.40;12.13;;;10.80;99.90;;;;;;6215123;23;20162;-77
2021/12/13 09:14:16;;;;;;;14.33;11.27;;;10.70;99.90;;;;;;6214888;23;20221;-80
2021/12/13 09:16:54;;;;;;;14.30;11.20;;;10.70;99.90;;;;;;6214747;23;20167;-78
2021/12/13 09:19:25;;;;;;;15.70;11.33;;;10.80;99.90;;;;;;6214953;23;20171;-77
2021/12/13 09:22:00;;;;;;;16.40;11.27;;;10.80;99.90;;;;;;6214488;23;20294;-76
2021/12/13 09:24:34;;;;;;;15.07;10.57;;;10.70;99.90;;;;;;6214958;23;20179;-76
2021/12/13 09:27:25;;;;;;;14.73;11.00;;;10.80;99.90;;;;;;6214772;23;20162;-74
2021/12/13 09:30:00;;;;;;;11.60;10.27;;;10.80;99.90;;;;;;6214501;23;20236;-75
2021/12/13 09:32:37;;;;;;;11.30;10.10;;;10.70;99.90;;;;;;6213505;23;20819;-77
2021/12/13 09:35:39;;;;;;;15.35;10.82;;;10.70;99.90;;;;;;6214364;23;20403;-77
2021/12/13 09:38:28;;;;;;;12.40;10.13;;;10.70;99.90;;;;;;6214039;23;20528;-77
2021/12/13 09:41:00;;;;;;;11.67;10.10;;;10.70;99.90;;;;;;6215023;23;20172;-77
2021/12/13 09:43:39;;;;;;;11.23;9.77;;;10.80;99.90;;;;;;6215092;23;20165;-76
2021/12/13 09:46:07;;;;;;;13.27;9.80;;;10.90;99.90;;;;;;6215124;23;20168;-76
2021/12/13 09:48:43;;;;;;;12.47;9.40;;;10.80;99.90;;;;;;6214771;23;20493;-76
2021/12/13 09:51:17;;;;;;;11.50;9.53;;;10.80;99.90;;;;;;6214514;23;20167;-76
2021/12/13 09:53:49;;;;;;;10.67;9.13;;;10.90;99.90;;;;;;6213913;23;20670;-77
2021/12/13 09:56:17;;;;;;;10.50;9.40;;;10.80;99.90;;;;;;6214476;23;20607;-76
2021/12/13 09:58:48;;;;;;;10.30;9.10;;;10.80;99.90;;;;;;6214961;23;20170;-77
2021/12/13 10:01:20;;;;;;;11.17;9.53;;;10.80;99.90;;;;;;6215113;23;20494;-75
2021/12/13 10:03:56;;;;;;;10.30;8.73;;;10.90;99.90;;;;;;6214885;23;20167;-75
2021/12/13 10:06:26;;;;;;;9.27;7.67;;;10.80;99.90;;;;;;6214855;23;20178;-75
2021/12/13 10:08:58;;;;;;;9.70;8.77;;;10.80;99.90;;;;;;6214868;23;20557;-76
2021/12/13 10:11:28;;;;;;;11.23;8.73;;;10.70;99.90;;;;;;6215098;23;20167;-75
2021/12/13 10:13:56;;;;;;;9.43;8.47;;;10.80;99.90;;;;;;6214409;23;20678;-76
2021/12/13 10:16:28;;;;;;;10.90;8.80;;;10.80;99.90;;;;;;6214813;23;20168;-76
2021/12/13 10:18:57;;;;;;;10.57;7.93;;;10.80;99.90;;;;;;6214605;23;20623;-77
2021/12/13 10:21:27;;;;;;;9.00;8.20;;;10.90;99.90;;;;;;6214510;23;20211;-77
2021/12/13 10:23:56;;;;;;;8.73;7.93;;;10.80;99.90;;;;;;6214720;23;20191;-77
2021/12/13 10:26:25;;;;;;;8.80;7.90;;;10.80;99.90;;;;;;6214955;23;20163;-76
2021/12/13 10:28:54;;;;;;;8.40;7.60;;;10.80;99.90;;;;;;6214481;23;20637;-77
2021/12/13 10:31:26;;;;;;;11.70;9.03;;;10.70;99.90;;;;;;6214816;23;20164;-76
2021/12/13 10:33:59;;;;;;;9.60;7.17;;;10.80;99.90;;;;;;6214152;23;20193;-81
2021/12/13 10:36:28;;;;;;;9.52;8.73;;;10.70;99.90;;;;;;6212958;23;20395;-79
2021/12/13 10:39:00;;;;;;;9.27;8.20;;;10.90;99.90;;;;;;6217308;23;20181;-81
2021/12/13 10:41:32;;;;;;;9.30;7.57;;;10.80;99.90;;;;;;6217056;23;20169;-81
2021/12/13 10:44:08;;;;;;;8.57;7.70;;;10.70;99.90;;;;;;6216471;23;20165;-81
2021/12/13 10:46:41;;;;;;;8.43;7.53;;;10.70;99.90;;;;;;6217267;23;20205;-82
2021/12/13 10:49:14;;;;;;;8.43;7.63;;;10.80;99.90;;;;;;6217169;23;20163;-80
2021/12/13 10:51:45;;;;;;;8.90;8.00;;;10.90;99.90;;;;;;6217186;23;20171;-85
2021/12/13 10:54:16;;;;;;;9.83;8.40;;;10.90;99.90;;;;;;6210320;23;20203;-82
2021/12/13 10:56:53;;;;;;;8.20;7.40;;;10.80;99.90;;;;;;6216497;23;20169;-85
2021/12/13 10:59:28;;;;;;;8.77;7.80;;;10.90;99.90;;;;;;6216187;23;20170;-82
2021/12/13 11:02:00;;;;;;;118.50;59.77;;;11.00;99.90;;;;;;6216466;23;20212;-82
2021/12/13 11:04:38;;;;;;;9.77;7.63;;;10.90;99.90;;;;;;6211034;23;20164;-85
2021/12/13 11:07:12;;;;;;;9.98;8.95;;;11.00;99.90;;;;;;6213786;23;20395;-84
2021/12/13 11:09:44;;;;;;;9.13;8.33;;;11.10;99.90;;;;;;6210616;23;20179;-80
2021/12/13 11:12:13;;;;;;;7.63;7.03;;;11.10;99.90;;;;;;6216508;23;20169;-84
2021/12/13 11:14:46;;;;;;;8.33;7.50;;;11.20;99.90;;;;;;6216497;23;20204;-84
2021/12/13 11:17:17;;;;;;;9.90;7.43;;;11.30;99.90;;;;;;6214930;23;20168;-82
2021/12/13 11:19:51;;;;;;;7.97;7.13;;;11.20;99.90;;;;;;6216405;23;20165;-84
2021/12/13 11:22:31;;;;;;;7.77;7.10;;;11.20;99.90;;;;;;6216125;23;20187;-83
2021/12/13 11:25:04;;;;;;;8.37;7.57;;;11.20;99.90;;;;;;6216004;23;20242;-81
2021/12/13 11:27:34;;;;;;;9.60;7.40;;;11.20;99.90;;;;;;6216353;23;20171;-80
2021/12/13 11:30:06;;;;;;;8.97;7.23;;;11.30;99.90;;;;;;6215533;23;20164;-84
2021/12/13 11:33:21;;;;;;;8.63;7.73;;;11.30;99.90;;;;;;6216315;23;20570;-83
2021/12/13 11:36:31;;;;;;;10.87;7.17;;;11.30;99.90;;;;;;6215759;23;20184;-82
2021/12/13 11:39:22;;;;;;;9.20;8.40;;;11.10;99.90;;;;;;6214918;23;20391;-80
2021/12/13 11:42:08;;;;;;;9.17;7.27;;;11.30;99.90;;;;;;6215379;23;20399;-83
2021/12/13 11:44:46;;;;;;;8.33;7.47;;;11.40;99.90;;;;;;6216206;23;20169;-75
2021/12/13 11:47:44;;;;;;;7.90;7.10;;;11.30;99.90;;;;;;6215420;23;20173;-81
2021/12/13 11:50:55;;;;;;;9.63;6.73;;;11.30;99.90;;;;;;6215690;23;20694;-84
2021/12/13 11:54:07;;;;;;;8.43;7.03;;;11.30;99.90;;;;;;6215560;23;20207;-81
2021/12/13 11:57:28;;;;;;;8.70;6.83;;;11.30;99.90;;;;;;6215722;23;20176;-79
2021/12/13 12:00:15;;;;;;;8.10;7.00;;;11.30;99.90;;;;;;6108807;23;20638;-85
2021/12/13 12:03:11;;;;;;;8.00;7.20;;;11.20;99.90;;;;;;6213615;23;20657;-81
2021/12/13 12:06:20;;;;;;;7.97;7.30;;;11.30;99.90;;;;;;6214893;23;20179;-80
2021/12/13 12:09:21;;;;;;;8.38;7.25;;;11.30;99.90;;;;;;6215670;23;20419;-80
2021/12/13 12:12:20;;;;;;;7.43;6.30;;;11.40;99.90;;;;;;6166888;23;20184;-80
2021/12/13 12:14:49;;;;;;;7.07;6.47;;;11.20;99.90;;;;;;6215528;23;20208;-82
2021/12/13 12:17:18;;;;;;;8.23;6.47;;;11.10;99.90;;;;;;6215076;23;20178;-80
2021/12/13 12:19:47;;;;;;;9.47;6.67;;;11.20;99.90;;;;;;6215640;23;20177;-81
2021/12/13 12:22:16;;;;;;;8.70;6.90;;;11.40;99.90;;;;;;6215466;23;20188;-80
2021/12/13 12:24:45;;;;;;;8.67;6.73;;;11.30;99.90;;;;;;6215457;23;20558;-80
2021/12/13 12:27:14;;;;;;;9.00;6.93;;;11.20;99.90;;;;;;6215495;23;20168;-79
2021/12/13 12:29:44;;;;;;;7.33;6.67;;;11.30;99.90;;;;;;6214760;23;20470;-80
2021/12/13 12:32:15;;;;;;;8.13;7.33;;;11.20;99.90;;;;;;6213434;23;20180;-79
2021/12/13 12:34:53;;;;;;;7.97;6.50;;;11.20;99.90;;;;;;6214970;23;20212;-81
2021/12/13 12:38:03;;;;;;;11.10;7.00;;;11.10;99.90;;;;;;6216402;23;20461;-80
2021/12/13 12:40:35;;;;;;;7.40;6.47;;;11.00;99.90;;;;;;6218314;23;20495;-83
2021/12/13 12:43:06;;;;;;;8.60;6.50;;;11.20;99.90;;;;;;6216676;23;20548;-81
2021/12/13 12:45:36;;;;;;;7.00;6.30;;;11.30;99.90;;;;;;6214910;23;20623;-83
2021/12/13 12:48:29;;;;;;;7.17;6.47;;;11.40;99.90;;;;;;6214632;23;20176;-83
2021/12/13 12:51:07;;;;;;;7.40;6.50;;;11.40;99.90;;;;;;6215972;23;20608;-83
2021/12/13 12:53:43;;;;;;;6.80;6.00;;;11.30;99.90;;;;;;6215502;23;20647;-83
2021/12/13 12:56:15;;;;;;;6.73;5.90;;;11.30;99.90;;;;;;6215544;23;20259;-83
2021/12/13 12:58:53;;;;;;;6.07;5.57;;;11.40;99.90;;;;;;6215664;23;20165;-82
2021/12/13 13:01:26;;;;;;;6.33;5.73;;;11.50;99.90;;;;;;6214806;23;20194;-82
2021/12/13 13:03:54;;;;;;;6.20;5.60;;;11.30;99.90;;;;;;6215335;23;20171;-83
2021/12/13 13:06:26;;;;;;;7.37;5.47;;;11.40;99.90;;;;;;6216049;23;20184;-81
2021/12/13 13:08:55;;;;;;;8.03;5.67;;;11.50;99.90;;;;;;6199548;23;20186;-80
2021/12/13 13:11:29;;;;;;;7.07;5.00;;;11.40;99.90;;;;;;6214601;23;20176;-80